sensor_id;sensor_type;location;lat;lon;timestamp;P1;durP1;ratioP1;P2;durP2;ratioP2
71238;SDS011;61342;51.442;7.370;2022-08-19T00:00:26;8.73;;;7.82;;
71238;SDS011;61342;51.442;7.370;2022-08-19T00:01:27;8.82;;;8.00;;
71238;SDS011;61342;51.442;7.370;2022-08-19T00:02:29;9.32;;;7.57;;
71238;SDS011;61342;51.442;7.370;2022-08-19T00:03:29;9.63;;;8.25;;
71238;SDS011;61342;51.442;7.370;2022-08-19T00:04:32;11.65;;;7.90;;
71238;SDS011;61342;51.442;7.370;2022-08-19T00:05:36;11.25;;;7.57;;
71238;SDS011;61342;51.442;7.370;2022-08-19T00:06:36;10.05;;;7.75;;
71238;SDS011;61342;51.442;7.370;2022-08-19T00:07:38;8.55;;;7.15;;
71238;SDS011;61342;51.442;7.370;2022-08-19T00:08:38;11.45;;;7.70;;
71238;SDS011;61342;51.442;7.370;2022-08-19T00:09:39;8.45;;;7.60;;
71238;SDS011;61342;51.442;7.370;2022-08-19T00:10:39;10.27;;;7.70;;
71238;SDS011;61342;51.442;7.370;2022-08-19T00:11:40;8.68;;;7.50;;
71238;SDS011;61342;51.442;7.370;2022-08-19T00:12:42;10.30;;;8.13;;
71238;SDS011;61342;51.442;7.370;2022-08-19T00:13:42;9.15;;;7.82;;
71238;SDS011;61342;51.442;7.370;2022-08-19T00:14:43;8.43;;;7.53;;
71238;SDS011;61342;51.442;7.370;2022-08-19T00:15:43;9.43;;;8.05;;
71238;SDS011;61342;51.442;7.370;2022-08-19T00:16:45;8.73;;;7.80;;
71238;SDS011;61342;51.442;7.370;2022-08-19T00:17:47;7.72;;;6.97;;
71238;SDS011;61342;51.442;7.370;2022-08-19T00:18:48;8.68;;;7.72;;
71238;SDS011;61342;51.442;7.370;2022-08-19T00:19:48;10.02;;;8.05;;
71238;SDS011;61342;51.442;7.370;2022-08-19T00:20:49;10.02;;;7.68;;
71238;SDS011;61342;51.442;7.370;2022-08-19T00:21:49;9.20;;;7.75;;
71238;SDS011;61342;51.442;7.370;2022-08-19T00:22:50;9.95;;;8.50;;
71238;SDS011;61342;51.442;7.370;2022-08-19T00:23:52;9.15;;;7.78;;
71238;SDS011;61342;51.442;7.370;2022-08-19T00:24:53;9.48;;;8.60;;
71238;SDS011;61342;51.442;7.370;2022-08-19T00:25:54;8.55;;;7.57;;
71238;SDS011;61342;51.442;7.370;2022-08-19T00:26:55;10.43;;;7.78;;
71238;SDS011;61342;51.442;7.370;2022-08-19T00:27:56;10.68;;;7.97;;
71238;SDS011;61342;51.442;7.370;2022-08-19T00:28:58;8.30;;;7.50;;
71238;SDS011;61342;51.442;7.370;2022-08-19T00:30:00;9.07;;;7.68;;
71238;SDS011;61342;51.442;7.370;2022-08-19T00:31:04;8.77;;;7.85;;
71238;SDS011;61342;51.442;7.370;2022-08-19T00:32:05;10.45;;;7.45;;
71238;SDS011;61342;51.442;7.370;2022-08-19T00:33:06;10.13;;;7.32;;
71238;SDS011;61342;51.442;7.370;2022-08-19T00:34:08;8.25;;;7.40;;
71238;SDS011;61342;51.442;7.370;2022-08-19T00:35:09;9.27;;;8.38;;
71238;SDS011;61342;51.442;7.370;2022-08-19T00:36:09;9.15;;;7.25;;
71238;SDS011;61342;51.442;7.370;2022-08-19T00:37:10;11.25;;;8.00;;
71238;SDS011;61342;51.442;7.370;2022-08-19T00:38:11;8.82;;;7.43;;
71238;SDS011;61342;51.442;7.370;2022-08-19T00:39:11;8.38;;;7.55;;
71238;SDS011;61342;51.442;7.370;2022-08-19T00:40:12;8.35;;;7.20;;
71238;SDS011;61342;51.442;7.370;2022-08-19T00:41:14;8.70;;;7.78;;
71238;SDS011;61342;51.442;7.370;2022-08-19T00:42:16;8.27;;;7.25;;
71238;SDS011;61342;51.442;7.370;2022-08-19T00:43:18;10.27;;;7.75;;
71238;SDS011;61342;51.442;7.370;2022-08-19T00:44:22;8.57;;;7.60;;
71238;SDS011;61342;51.442;7.370;2022-08-19T00:45:25;8.88;;;7.72;;
71238;SDS011;61342;51.442;7.370;2022-08-19T00:46:28;9.27;;;7.47;;
71238;SDS011;61342;51.442;7.370;2022-08-19T00:47:29;9.68;;;6.95;;
71238;SDS011;61342;51.442;7.370;2022-08-19T00:48:29;8.13;;;7.18;;
71238;SDS011;61342;51.442;7.370;2022-08-19T00:49:35;9.02;;;7.57;;
71238;SDS011;61342;51.442;7.370;2022-08-19T00:50:40;8.43;;;7.65;;
71238;SDS011;61342;51.442;7.370;2022-08-19T00:51:44;8.68;;;7.32;;
71238;SDS011;61342;51.442;7.370;2022-08-19T00:52:47;9.93;;;7.50;;
71238;SDS011;61342;51.442;7.370;2022-08-19T00:53:50;10.48;;;7.60;;
71238;SDS011;61342;51.442;7.370;2022-08-19T00:54:51;8.38;;;7.57;;
71238;SDS011;61342;51.442;7.370;2022-08-19T00:55:53;8.07;;;7.38;;
71238;SDS011;61342;51.442;7.370;2022-08-19T00:56:57;8.45;;;7.55;;
71238;SDS011;61342;51.442;7.370;2022-08-19T00:58:00;8.60;;;7.77;;
71238;SDS011;61342;51.442;7.370;2022-08-19T00:59:04;8.30;;;7.55;;
71238;SDS011;61342;51.442;7.370;2022-08-19T01:00:10;9.07;;;7.63;;
71238;SDS011;61342;51.442;7.370;2022-08-19T01:01:13;9.30;;;7.72;;
71238;SDS011;61342;51.442;7.370;2022-08-19T01:02:15;8.60;;;7.70;;
71238;SDS011;61342;51.442;7.370;2022-08-19T01:03:18;9.43;;;7.43;;
71238;SDS011;61342;51.442;7.370;2022-08-19T01:04:20;8.77;;;7.75;;
71238;SDS011;61342;51.442;7.370;2022-08-19T01:05:22;9.38;;;7.60;;
71238;SDS011;61342;51.442;7.370;2022-08-19T01:06:25;8.48;;;7.53;;
71238;SDS011;61342;51.442;7.370;2022-08-19T01:07:26;8.00;;;7.20;;
71238;SDS011;61342;51.442;7.370;2022-08-19T01:08:26;7.55;;;6.85;;
71238;SDS011;61342;51.442;7.370;2022-08-19T01:09:26;11.38;;;7.68;;
71238;SDS011;61342;51.442;7.370;2022-08-19T01:10:27;7.97;;;7.18;;
71238;SDS011;61342;51.442;7.370;2022-08-19T01:11:31;8.10;;;7.30;;
71238;SDS011;61342;51.442;7.370;2022-08-19T01:12:35;9.75;;;6.88;;
71238;SDS011;61342;51.442;7.370;2022-08-19T01:13:36;8.15;;;7.35;;
71238;SDS011;61342;51.442;7.370;2022-08-19T01:14:37;8.48;;;7.68;;
71238;SDS011;61342;51.442;7.370;2022-08-19T01:15:40;8.02;;;7.22;;
71238;SDS011;61342;51.442;7.370;2022-08-19T01:16:44;8.30;;;7.47;;
71238;SDS011;61342;51.442;7.370;2022-08-19T01:17:46;8.63;;;6.97;;
71238;SDS011;61342;51.442;7.370;2022-08-19T01:18:48;8.80;;;6.95;;
71238;SDS011;61342;51.442;7.370;2022-08-19T01:19:49;10.80;;;7.15;;
71238;SDS011;61342;51.442;7.370;2022-08-19T01:20:49;7.70;;;6.90;;
71238;SDS011;61342;51.442;7.370;2022-08-19T01:21:55;7.60;;;6.80;;
71238;SDS011;61342;51.442;7.370;2022-08-19T01:23:08;8.57;;;7.27;;
71238;SDS011;61342;51.442;7.370;2022-08-19T01:24:09;7.80;;;7.10;;
71238;SDS011;61342;51.442;7.370;2022-08-19T01:25:09;7.50;;;6.80;;
71238;SDS011;61342;51.442;7.370;2022-08-19T01:26:28;8.05;;;7.10;;
71238;SDS011;61342;51.442;7.370;2022-08-19T01:27:36;7.90;;;7.10;;
71238;SDS011;61342;51.442;7.370;2022-08-19T01:28:38;10.02;;;7.65;;
71238;SDS011;61342;51.442;7.370;2022-08-19T01:29:41;7.90;;;7.10;;
71238;SDS011;61342;51.442;7.370;2022-08-19T01:30:41;8.45;;;7.65;;
71238;SDS011;61342;51.442;7.370;2022-08-19T01:31:43;8.00;;;7.23;;
71238;SDS011;61342;51.442;7.370;2022-08-19T01:32:44;8.80;;;7.03;;
71238;SDS011;61342;51.442;7.370;2022-08-19T01:33:44;8.10;;;7.30;;
71238;SDS011;61342;51.442;7.370;2022-08-19T01:34:46;8.80;;;7.70;;
71238;SDS011;61342;51.442;7.370;2022-08-19T01:35:47;8.57;;;7.67;;
71238;SDS011;61342;51.442;7.370;2022-08-19T01:36:51;9.63;;;8.17;;
71238;SDS011;61342;51.442;7.370;2022-08-19T01:38:58;8.40;;;7.57;;
71238;SDS011;61342;51.442;7.370;2022-08-19T01:39:59;10.17;;;7.53;;
71238;SDS011;61342;51.442;7.370;2022-08-19T01:41:00;8.13;;;7.30;;
71238;SDS011;61342;51.442;7.370;2022-08-19T01:42:00;8.70;;;7.40;;
71238;SDS011;61342;51.442;7.370;2022-08-19T01:43:03;8.80;;;7.90;;
71238;SDS011;61342;51.442;7.370;2022-08-19T01:44:05;8.53;;;7.63;;
71238;SDS011;61342;51.442;7.370;2022-08-19T01:45:06;8.30;;;7.50;;
71238;SDS011;61342;51.442;7.370;2022-08-19T01:46:08;7.80;;;7.03;;
71238;SDS011;61342;51.442;7.370;2022-08-19T01:47:08;9.43;;;7.53;;
71238;SDS011;61342;51.442;7.370;2022-08-19T01:48:11;8.73;;;7.53;;
71238;SDS011;61342;51.442;7.370;2022-08-19T01:49:13;11.40;;;7.37;;
71238;SDS011;61342;51.442;7.370;2022-08-19T01:50:13;8.30;;;7.47;;
71238;SDS011;61342;51.442;7.370;2022-08-19T01:51:14;8.63;;;7.33;;
71238;SDS011;61342;51.442;7.370;2022-08-19T01:52:15;7.67;;;6.87;;
71238;SDS011;61342;51.442;7.370;2022-08-19T01:53:15;7.80;;;7.10;;
71238;SDS011;61342;51.442;7.370;2022-08-19T01:54:16;8.40;;;7.50;;
71238;SDS011;61342;51.442;7.370;2022-08-19T01:55:19;9.47;;;7.63;;
71238;SDS011;61342;51.442;7.370;2022-08-19T01:56:20;8.07;;;7.33;;
71238;SDS011;61342;51.442;7.370;2022-08-19T01:57:21;8.63;;;7.43;;
71238;SDS011;61342;51.442;7.370;2022-08-19T01:58:22;8.87;;;7.83;;
71238;SDS011;61342;51.442;7.370;2022-08-19T01:59:30;10.23;;;7.73;;
71238;SDS011;61342;51.442;7.370;2022-08-19T02:00:32;8.43;;;7.13;;
71238;SDS011;61342;51.442;7.370;2022-08-19T02:01:32;8.83;;;7.37;;
71238;SDS011;61342;51.442;7.370;2022-08-19T02:02:34;7.73;;;6.90;;
71238;SDS011;61342;51.442;7.370;2022-08-19T02:03:35;8.30;;;7.40;;
71238;SDS011;61342;51.442;7.370;2022-08-19T02:04:35;8.97;;;7.37;;
71238;SDS011;61342;51.442;7.370;2022-08-19T02:05:38;10.33;;;7.77;;
71238;SDS011;61342;51.442;7.370;2022-08-19T02:06:40;8.83;;;7.97;;
71238;SDS011;61342;51.442;7.370;2022-08-19T02:07:40;8.90;;;7.80;;
71238;SDS011;61342;51.442;7.370;2022-08-19T02:08:41;8.50;;;7.37;;
71238;SDS011;61342;51.442;7.370;2022-08-19T02:09:41;10.57;;;7.67;;
71238;SDS011;61342;51.442;7.370;2022-08-19T02:10:42;8.13;;;7.30;;
71238;SDS011;61342;51.442;7.370;2022-08-19T02:11:44;12.03;;;8.33;;
71238;SDS011;61342;51.442;7.370;2022-08-19T02:12:44;8.07;;;7.27;;
71238;SDS011;61342;51.442;7.370;2022-08-19T02:13:45;8.93;;;6.70;;
71238;SDS011;61342;51.442;7.370;2022-08-19T02:14:45;9.33;;;7.70;;
71238;SDS011;61342;51.442;7.370;2022-08-19T02:15:46;8.00;;;7.20;;
71238;SDS011;61342;51.442;7.370;2022-08-19T02:16:46;11.10;;;7.33;;
71238;SDS011;61342;51.442;7.370;2022-08-19T02:17:47;7.63;;;6.93;;
71238;SDS011;61342;51.442;7.370;2022-08-19T02:18:48;8.07;;;7.27;;
71238;SDS011;61342;51.442;7.370;2022-08-19T02:19:48;9.43;;;6.83;;
71238;SDS011;61342;51.442;7.370;2022-08-19T02:20:49;8.27;;;7.37;;
71238;SDS011;61342;51.442;7.370;2022-08-19T02:21:49;8.63;;;6.97;;
71238;SDS011;61342;51.442;7.370;2022-08-19T02:22:50;7.77;;;7.07;;
71238;SDS011;61342;51.442;7.370;2022-08-19T02:23:50;7.97;;;7.17;;
71238;SDS011;61342;51.442;7.370;2022-08-19T02:24:51;7.83;;;7.10;;
71238;SDS011;61342;51.442;7.370;2022-08-19T02:25:53;8.00;;;7.00;;
71238;SDS011;61342;51.442;7.370;2022-08-19T02:26:53;9.03;;;7.90;;
71238;SDS011;61342;51.442;7.370;2022-08-19T02:27:53;7.10;;;6.50;;
71238;SDS011;61342;51.442;7.370;2022-08-19T02:28:54;8.00;;;7.20;;
71238;SDS011;61342;51.442;7.370;2022-08-19T02:29:55;8.53;;;6.67;;
71238;SDS011;61342;51.442;7.370;2022-08-19T02:30:56;7.57;;;6.90;;
71238;SDS011;61342;51.442;7.370;2022-08-19T02:31:56;9.40;;;7.30;;
71238;SDS011;61342;51.442;7.370;2022-08-19T02:32:57;8.30;;;7.50;;
71238;SDS011;61342;51.442;7.370;2022-08-19T02:33:57;7.60;;;6.80;;
71238;SDS011;61342;51.442;7.370;2022-08-19T02:34:58;8.40;;;7.53;;
71238;SDS011;61342;51.442;7.370;2022-08-19T02:35:58;7.67;;;6.83;;
71238;SDS011;61342;51.442;7.370;2022-08-19T02:36:59;8.33;;;6.90;;
71238;SDS011;61342;51.442;7.370;2022-08-19T02:37:59;10.53;;;7.23;;
71238;SDS011;61342;51.442;7.370;2022-08-19T02:39:18;7.90;;;7.17;;
71238;SDS011;61342;51.442;7.370;2022-08-19T02:40:19;8.07;;;7.17;;
71238;SDS011;61342;51.442;7.370;2022-08-19T02:41:22;7.57;;;6.63;;
71238;SDS011;61342;51.442;7.370;2022-08-19T02:42:25;10.43;;;7.47;;
71238;SDS011;61342;51.442;7.370;2022-08-19T02:43:26;8.43;;;7.63;;
71238;SDS011;61342;51.442;7.370;2022-08-19T02:44:28;8.93;;;6.83;;
71238;SDS011;61342;51.442;7.370;2022-08-19T02:45:35;8.27;;;7.47;;
71238;SDS011;61342;51.442;7.370;2022-08-19T02:46:37;9.17;;;7.53;;
71238;SDS011;61342;51.442;7.370;2022-08-19T02:47:37;9.20;;;8.30;;
71238;SDS011;61342;51.442;7.370;2022-08-19T02:48:38;8.03;;;7.23;;
71238;SDS011;61342;51.442;7.370;2022-08-19T02:49:38;9.17;;;8.00;;
71238;SDS011;61342;51.442;7.370;2022-08-19T02:50:39;11.07;;;8.60;;
71238;SDS011;61342;51.442;7.370;2022-08-19T02:51:41;10.70;;;8.17;;
71238;SDS011;61342;51.442;7.370;2022-08-19T02:52:43;8.77;;;7.80;;
71238;SDS011;61342;51.442;7.370;2022-08-19T02:53:45;13.53;;;8.40;;
71238;SDS011;61342;51.442;7.370;2022-08-19T02:54:46;9.90;;;8.43;;
71238;SDS011;61342;51.442;7.370;2022-08-19T02:55:46;9.07;;;8.17;;
71238;SDS011;61342;51.442;7.370;2022-08-19T02:56:47;9.47;;;7.60;;
71238;SDS011;61342;51.442;7.370;2022-08-19T02:57:47;10.73;;;7.90;;
71238;SDS011;61342;51.442;7.370;2022-08-19T02:58:48;8.33;;;7.50;;
71238;SDS011;61342;51.442;7.370;2022-08-19T02:59:48;14.50;;;7.77;;
71238;SDS011;61342;51.442;7.370;2022-08-19T03:00:53;8.33;;;7.50;;
71238;SDS011;61342;51.442;7.370;2022-08-19T03:01:55;7.80;;;7.00;;
71238;SDS011;61342;51.442;7.370;2022-08-19T03:02:55;9.43;;;7.93;;
71238;SDS011;61342;51.442;7.370;2022-08-19T03:03:57;8.17;;;7.37;;
71238;SDS011;61342;51.442;7.370;2022-08-19T03:04:59;8.83;;;7.40;;
71238;SDS011;61342;51.442;7.370;2022-08-19T03:06:03;8.40;;;7.60;;
71238;SDS011;61342;51.442;7.370;2022-08-19T03:07:08;8.53;;;7.63;;
71238;SDS011;61342;51.442;7.370;2022-08-19T03:08:09;10.17;;;7.67;;
71238;SDS011;61342;51.442;7.370;2022-08-19T03:09:12;8.23;;;7.53;;
71238;SDS011;61342;51.442;7.370;2022-08-19T03:10:13;8.17;;;7.10;;
71238;SDS011;61342;51.442;7.370;2022-08-19T03:11:18;8.53;;;7.63;;
71238;SDS011;61342;51.442;7.370;2022-08-19T03:12:20;8.37;;;7.57;;
71238;SDS011;61342;51.442;7.370;2022-08-19T03:13:21;8.27;;;7.47;;
71238;SDS011;61342;51.442;7.370;2022-08-19T03:14:21;9.50;;;8.50;;
71238;SDS011;61342;51.442;7.370;2022-08-19T03:15:23;9.40;;;8.40;;
71238;SDS011;61342;51.442;7.370;2022-08-19T03:16:24;8.70;;;7.90;;
71238;SDS011;61342;51.442;7.370;2022-08-19T03:17:26;8.97;;;8.13;;
71238;SDS011;61342;51.442;7.370;2022-08-19T03:18:26;9.40;;;8.60;;
71238;SDS011;61342;51.442;7.370;2022-08-19T03:19:27;9.13;;;8.23;;
71238;SDS011;61342;51.442;7.370;2022-08-19T03:20:27;9.83;;;7.67;;
71238;SDS011;61342;51.442;7.370;2022-08-19T03:21:29;9.47;;;7.47;;
71238;SDS011;61342;51.442;7.370;2022-08-19T03:22:31;11.50;;;8.17;;
71238;SDS011;61342;51.442;7.370;2022-08-19T03:23:31;9.07;;;7.97;;
71238;SDS011;61342;51.442;7.370;2022-08-19T03:24:32;8.00;;;7.40;;
71238;SDS011;61342;51.442;7.370;2022-08-19T03:25:36;8.60;;;7.70;;
71238;SDS011;61342;51.442;7.370;2022-08-19T03:26:39;9.17;;;8.23;;
71238;SDS011;61342;51.442;7.370;2022-08-19T03:27:41;8.83;;;8.03;;
71238;SDS011;61342;51.442;7.370;2022-08-19T03:28:43;10.63;;;8.20;;
71238;SDS011;61342;51.442;7.370;2022-08-19T03:29:44;8.97;;;8.07;;
71238;SDS011;61342;51.442;7.370;2022-08-19T03:30:55;10.27;;;8.07;;
71238;SDS011;61342;51.442;7.370;2022-08-19T03:31:57;8.97;;;8.13;;
71238;SDS011;61342;51.442;7.370;2022-08-19T03:33:00;8.93;;;8.03;;
71238;SDS011;61342;51.442;7.370;2022-08-19T03:34:02;8.90;;;8.10;;
71238;SDS011;61342;51.442;7.370;2022-08-19T03:35:03;9.27;;;8.37;;
71238;SDS011;61342;51.442;7.370;2022-08-19T03:36:10;9.07;;;8.00;;
71238;SDS011;61342;51.442;7.370;2022-08-19T03:37:12;8.47;;;7.73;;
71238;SDS011;61342;51.442;7.370;2022-08-19T03:38:12;9.27;;;8.27;;
71238;SDS011;61342;51.442;7.370;2022-08-19T03:39:13;9.30;;;8.40;;
71238;SDS011;61342;51.442;7.370;2022-08-19T03:40:14;9.57;;;8.63;;
71238;SDS011;61342;51.442;7.370;2022-08-19T03:41:15;9.33;;;8.40;;
71238;SDS011;61342;51.442;7.370;2022-08-19T03:42:18;8.80;;;7.90;;
71238;SDS011;61342;51.442;7.370;2022-08-19T03:43:18;9.20;;;8.30;;
71238;SDS011;61342;51.442;7.370;2022-08-19T03:44:20;9.43;;;8.47;;
71238;SDS011;61342;51.442;7.370;2022-08-19T03:45:22;8.80;;;7.80;;
71238;SDS011;61342;51.442;7.370;2022-08-19T03:46:24;10.20;;;8.57;;
71238;SDS011;61342;51.442;7.370;2022-08-19T03:47:26;9.33;;;7.93;;
71238;SDS011;61342;51.442;7.370;2022-08-19T03:48:27;10.00;;;8.37;;
71238;SDS011;61342;51.442;7.370;2022-08-19T03:49:28;10.73;;;8.17;;
71238;SDS011;61342;51.442;7.370;2022-08-19T03:50:29;10.50;;;8.60;;
71238;SDS011;61342;51.442;7.370;2022-08-19T03:51:31;8.80;;;7.90;;
71238;SDS011;61342;51.442;7.370;2022-08-19T03:52:34;10.50;;;9.30;;
71238;SDS011;61342;51.442;7.370;2022-08-19T03:53:35;9.23;;;8.40;;
71238;SDS011;61342;51.442;7.370;2022-08-19T03:54:36;9.97;;;7.60;;
71238;SDS011;61342;51.442;7.370;2022-08-19T03:55:41;9.07;;;8.17;;
71238;SDS011;61342;51.442;7.370;2022-08-19T03:56:42;9.20;;;8.30;;
71238;SDS011;61342;51.442;7.370;2022-08-19T03:57:44;8.97;;;8.13;;
71238;SDS011;61342;51.442;7.370;2022-08-19T03:58:46;9.50;;;8.50;;
71238;SDS011;61342;51.442;7.370;2022-08-19T03:59:46;9.07;;;8.20;;
71238;SDS011;61342;51.442;7.370;2022-08-19T04:00:47;9.23;;;8.33;;
71238;SDS011;61342;51.442;7.370;2022-08-19T04:01:47;8.57;;;7.77;;
71238;SDS011;61342;51.442;7.370;2022-08-19T04:02:47;9.73;;;8.57;;
71238;SDS011;61342;51.442;7.370;2022-08-19T04:03:48;10.30;;;8.60;;
71238;SDS011;61342;51.442;7.370;2022-08-19T04:04:49;8.67;;;7.77;;
71238;SDS011;61342;51.442;7.370;2022-08-19T04:05:53;13.23;;;8.77;;
71238;SDS011;61342;51.442;7.370;2022-08-19T04:06:54;8.23;;;7.53;;
71238;SDS011;61342;51.442;7.370;2022-08-19T04:07:54;10.07;;;8.57;;
71238;SDS011;61342;51.442;7.370;2022-08-19T04:08:59;10.13;;;8.50;;
71238;SDS011;61342;51.442;7.370;2022-08-19T04:10:01;8.50;;;7.70;;
71238;SDS011;61342;51.442;7.370;2022-08-19T04:11:05;8.80;;;7.87;;
71238;SDS011;61342;51.442;7.370;2022-08-19T04:12:09;8.83;;;8.00;;
71238;SDS011;61342;51.442;7.370;2022-08-19T04:13:10;9.00;;;8.03;;
71238;SDS011;61342;51.442;7.370;2022-08-19T04:14:12;9.43;;;8.43;;
71238;SDS011;61342;51.442;7.370;2022-08-19T04:15:14;9.67;;;8.67;;
71238;SDS011;61342;51.442;7.370;2022-08-19T04:16:15;9.60;;;8.63;;
71238;SDS011;61342;51.442;7.370;2022-08-19T04:17:15;10.93;;;8.90;;
71238;SDS011;61342;51.442;7.370;2022-08-19T04:18:16;10.37;;;9.30;;
71238;SDS011;61342;51.442;7.370;2022-08-19T04:19:17;10.60;;;9.10;;
71238;SDS011;61342;51.442;7.370;2022-08-19T04:20:18;10.60;;;9.43;;
71238;SDS011;61342;51.442;7.370;2022-08-19T04:21:21;10.93;;;9.00;;
71238;SDS011;61342;51.442;7.370;2022-08-19T04:22:25;10.20;;;9.10;;
71238;SDS011;61342;51.442;7.370;2022-08-19T04:23:26;10.23;;;9.20;;
71238;SDS011;61342;51.442;7.370;2022-08-19T04:24:28;10.33;;;9.33;;
71238;SDS011;61342;51.442;7.370;2022-08-19T04:25:28;10.33;;;9.23;;
71238;SDS011;61342;51.442;7.370;2022-08-19T04:26:30;11.97;;;9.00;;
71238;SDS011;61342;51.442;7.370;2022-08-19T04:27:32;10.70;;;9.60;;
71238;SDS011;61342;51.442;7.370;2022-08-19T04:28:33;10.13;;;9.13;;
71238;SDS011;61342;51.442;7.370;2022-08-19T04:29:36;10.73;;;9.23;;
71238;SDS011;61342;51.442;7.370;2022-08-19T04:30:40;9.90;;;9.00;;
71238;SDS011;61342;51.442;7.370;2022-08-19T04:31:45;10.93;;;9.70;;
71238;SDS011;61342;51.442;7.370;2022-08-19T04:32:46;10.47;;;9.37;;
71238;SDS011;61342;51.442;7.370;2022-08-19T04:33:46;10.10;;;9.13;;
71238;SDS011;61342;51.442;7.370;2022-08-19T04:34:46;11.00;;;9.70;;
71238;SDS011;61342;51.442;7.370;2022-08-19T04:35:47;11.27;;;9.83;;
71238;SDS011;61342;51.442;7.370;2022-08-19T04:36:48;10.63;;;9.60;;
71238;SDS011;61342;51.442;7.370;2022-08-19T04:37:51;11.67;;;9.60;;
71238;SDS011;61342;51.442;7.370;2022-08-19T04:38:53;10.63;;;9.50;;
71238;SDS011;61342;51.442;7.370;2022-08-19T04:39:55;10.53;;;9.40;;
71238;SDS011;61342;51.442;7.370;2022-08-19T04:41:15;12.53;;;9.57;;
71238;SDS011;61342;51.442;7.370;2022-08-19T04:42:34;12.10;;;10.07;;
71238;SDS011;61342;51.442;7.370;2022-08-19T04:43:40;10.60;;;9.50;;
71238;SDS011;61342;51.442;7.370;2022-08-19T04:44:41;11.57;;;9.43;;
71238;SDS011;61342;51.442;7.370;2022-08-19T04:45:42;10.93;;;9.70;;
71238;SDS011;61342;51.442;7.370;2022-08-19T04:46:44;11.80;;;10.13;;
71238;SDS011;61342;51.442;7.370;2022-08-19T04:47:46;10.80;;;9.23;;
71238;SDS011;61342;51.442;7.370;2022-08-19T04:48:47;11.47;;;10.13;;
71238;SDS011;61342;51.442;7.370;2022-08-19T04:49:47;10.67;;;9.67;;
71238;SDS011;61342;51.442;7.370;2022-08-19T04:50:48;10.20;;;9.20;;
71238;SDS011;61342;51.442;7.370;2022-08-19T04:51:49;10.73;;;9.63;;
71238;SDS011;61342;51.442;7.370;2022-08-19T04:52:53;11.23;;;10.03;;
71238;SDS011;61342;51.442;7.370;2022-08-19T04:53:55;12.40;;;10.33;;
71238;SDS011;61342;51.442;7.370;2022-08-19T04:54:56;11.27;;;10.07;;
71238;SDS011;61342;51.442;7.370;2022-08-19T04:55:58;12.87;;;10.83;;
71238;SDS011;61342;51.442;7.370;2022-08-19T04:57:01;12.10;;;10.80;;
71238;SDS011;61342;51.442;7.370;2022-08-19T04:58:03;11.67;;;10.47;;
71238;SDS011;61342;51.442;7.370;2022-08-19T04:59:03;11.23;;;9.77;;
71238;SDS011;61342;51.442;7.370;2022-08-19T05:00:04;12.40;;;10.70;;
71238;SDS011;61342;51.442;7.370;2022-08-19T05:01:05;11.63;;;10.47;;
71238;SDS011;61342;51.442;7.370;2022-08-19T05:02:06;13.43;;;12.03;;
71238;SDS011;61342;51.442;7.370;2022-08-19T05:03:08;12.30;;;11.10;;
71238;SDS011;61342;51.442;7.370;2022-08-19T05:04:10;11.47;;;10.27;;
71238;SDS011;61342;51.442;7.370;2022-08-19T05:05:10;14.13;;;11.00;;
71238;SDS011;61342;51.442;7.370;2022-08-19T05:06:13;13.60;;;10.53;;
71238;SDS011;61342;51.442;7.370;2022-08-19T05:07:15;14.23;;;11.30;;
71238;SDS011;61342;51.442;7.370;2022-08-19T05:08:16;12.70;;;11.40;;
71238;SDS011;61342;51.442;7.370;2022-08-19T05:09:19;12.23;;;11.03;;
71238;SDS011;61342;51.442;7.370;2022-08-19T05:10:21;13.87;;;11.60;;
71238;SDS011;61342;51.442;7.370;2022-08-19T05:11:23;12.90;;;11.50;;
71238;SDS011;61342;51.442;7.370;2022-08-19T05:12:29;12.00;;;10.67;;
71238;SDS011;61342;51.442;7.370;2022-08-19T05:13:29;13.20;;;11.03;;
71238;SDS011;61342;51.442;7.370;2022-08-19T05:14:30;12.07;;;10.77;;
71238;SDS011;61342;51.442;7.370;2022-08-19T05:15:30;12.40;;;11.17;;
71238;SDS011;61342;51.442;7.370;2022-08-19T05:16:31;13.47;;;11.20;;
71238;SDS011;61342;51.442;7.370;2022-08-19T05:17:32;13.77;;;11.10;;
71238;SDS011;61342;51.442;7.370;2022-08-19T05:18:32;12.00;;;10.70;;
71238;SDS011;61342;51.442;7.370;2022-08-19T05:19:51;14.17;;;11.20;;
71238;SDS011;61342;51.442;7.370;2022-08-19T05:21:11;12.93;;;10.63;;
71238;SDS011;61342;51.442;7.370;2022-08-19T05:22:34;12.60;;;10.03;;
71238;SDS011;61342;51.442;7.370;2022-08-19T05:23:35;12.20;;;10.90;;
71238;SDS011;61342;51.442;7.370;2022-08-19T05:24:36;15.40;;;11.27;;
71238;SDS011;61342;51.442;7.370;2022-08-19T05:25:38;11.43;;;10.20;;
71238;SDS011;61342;51.442;7.370;2022-08-19T05:26:43;12.03;;;10.80;;
71238;SDS011;61342;51.442;7.370;2022-08-19T05:27:46;13.13;;;10.37;;
71238;SDS011;61342;51.442;7.370;2022-08-19T05:28:47;14.07;;;12.50;;
71238;SDS011;61342;51.442;7.370;2022-08-19T05:29:47;12.13;;;10.93;;
71238;SDS011;61342;51.442;7.370;2022-08-19T05:30:48;13.40;;;10.90;;
71238;SDS011;61342;51.442;7.370;2022-08-19T05:31:50;13.93;;;12.53;;
71238;SDS011;61342;51.442;7.370;2022-08-19T05:32:52;17.30;;;12.60;;
71238;SDS011;61342;51.442;7.370;2022-08-19T05:33:52;16.57;;;12.63;;
71238;SDS011;61342;51.442;7.370;2022-08-19T05:34:53;16.17;;;13.17;;
71238;SDS011;61342;51.442;7.370;2022-08-19T05:35:53;16.93;;;12.73;;
71238;SDS011;61342;51.442;7.370;2022-08-19T05:36:55;14.10;;;12.63;;
71238;SDS011;61342;51.442;7.370;2022-08-19T05:37:56;13.67;;;12.37;;
71238;SDS011;61342;51.442;7.370;2022-08-19T05:38:57;14.43;;;12.73;;
71238;SDS011;61342;51.442;7.370;2022-08-19T05:39:57;13.93;;;12.50;;
71238;SDS011;61342;51.442;7.370;2022-08-19T05:40:58;15.20;;;13.60;;
71238;SDS011;61342;51.442;7.370;2022-08-19T05:41:59;14.90;;;12.53;;
71238;SDS011;61342;51.442;7.370;2022-08-19T05:43:02;12.90;;;11.60;;
71238;SDS011;61342;51.442;7.370;2022-08-19T05:44:04;13.67;;;12.33;;
71238;SDS011;61342;51.442;7.370;2022-08-19T05:45:09;13.40;;;12.10;;
71238;SDS011;61342;51.442;7.370;2022-08-19T05:46:15;15.30;;;13.13;;
71238;SDS011;61342;51.442;7.370;2022-08-19T05:47:18;14.73;;;12.17;;
71238;SDS011;61342;51.442;7.370;2022-08-19T05:48:19;17.50;;;13.20;;
71238;SDS011;61342;51.442;7.370;2022-08-19T05:49:21;16.60;;;13.80;;
71238;SDS011;61342;51.442;7.370;2022-08-19T05:50:22;14.63;;;13.13;;
71238;SDS011;61342;51.442;7.370;2022-08-19T05:51:23;16.00;;;14.30;;
71238;SDS011;61342;51.442;7.370;2022-08-19T05:52:25;18.47;;;15.00;;
71238;SDS011;61342;51.442;7.370;2022-08-19T05:53:27;17.33;;;14.43;;
71238;SDS011;61342;51.442;7.370;2022-08-19T05:54:27;17.90;;;16.00;;
71238;SDS011;61342;51.442;7.370;2022-08-19T05:55:27;16.70;;;14.03;;
71238;SDS011;61342;51.442;7.370;2022-08-19T05:56:28;17.27;;;15.00;;
71238;SDS011;61342;51.442;7.370;2022-08-19T05:57:30;18.10;;;14.70;;
71238;SDS011;61342;51.442;7.370;2022-08-19T05:58:31;16.13;;;14.27;;
71238;SDS011;61342;51.442;7.370;2022-08-19T05:59:32;16.37;;;14.70;;
71238;SDS011;61342;51.442;7.370;2022-08-19T06:00:35;18.90;;;15.03;;
71238;SDS011;61342;51.442;7.370;2022-08-19T06:01:37;17.33;;;15.30;;
71238;SDS011;61342;51.442;7.370;2022-08-19T06:02:39;16.77;;;14.97;;
71238;SDS011;61342;51.442;7.370;2022-08-19T06:03:40;16.63;;;14.60;;
71238;SDS011;61342;51.442;7.370;2022-08-19T06:04:41;15.77;;;13.90;;
71238;SDS011;61342;51.442;7.370;2022-08-19T06:05:42;18.83;;;15.20;;
71238;SDS011;61342;51.442;7.370;2022-08-19T06:06:43;19.20;;;15.07;;
71238;SDS011;61342;51.442;7.370;2022-08-19T06:07:43;19.27;;;14.43;;
71238;SDS011;61342;51.442;7.370;2022-08-19T06:08:44;16.67;;;13.83;;
71238;SDS011;61342;51.442;7.370;2022-08-19T06:09:50;20.17;;;14.87;;
71238;SDS011;61342;51.442;7.370;2022-08-19T06:10:50;17.10;;;15.00;;